Latest Weather Observations for Mount Hotham Airport

IDV60801

Issued at 7:02 pm EDT Sunday 14 February 2016 (issued every 30 minutes, with the page automatically refreshed every 10 minutes)

About weather observations | Map of weather stations | Latest weather observations for VIC | Other Formats
Station Details ID: 083055 Name: MOUNT HOTHAM AIRPORT Lat: -37.05 Lon: 147.33 Height: 1295.4 m
Data from the previous 72 hours. | See also: Recent months at Mount Hotham Airport
Date/Time
EDT
Temp
°C
App
Temp
°C
Dew
Point
Rel
Hum
%
Delta-T
°C
Wind Press
QNH
hPa
Press
MSL
hPa
Rain
since 9 am
mm
Dir
 
Spd
km/h
Gust
km/h
Spd
kts
Gust
kts
14/07:00pm 14.9 12.1 9.9 72 2.8 SE 15 20 8 11 1013.9 - 0.0
14/06:30pm 15.6 12.5 10.2 70 3.0 ESE 17 26 9 14 1013.6 - 0.0
14/06:00pm 16.6 14.1 11.1 70 3.2 ESE 15 20 8 11 1013.2 1009.0 0.0
14/05:30pm 18.8 15.4 11.4 62 4.3 ESE 20 28 11 15 1013.0 - 0.0
14/05:00pm 21.4 17.7 4.5 33 8.8 NNW 13 20 7 11 1012.8 - 0.0
14/04:30pm 22.2 18.5 4.3 31 9.3 W 13 30 7 16 1012.6 - 0.0
14/04:00pm 22.1 17.3 4.6 32 9.2 NNW 19 26 10 14 1012.6 - 0.0
14/03:30pm 21.9 16.5 4.5 32 9.1 NW 22 35 12 19 1012.6 - 0.0
14/03:00pm 22.0 16.9 4.1 31 9.3 W 20 35 11 19 1012.7 1008.4 0.0
14/02:30pm 22.1 16.3 4.2 31 9.3 W 24 43 13 23 1012.9 - 0.0
14/02:00pm 22.4 17.1 3.0 28 9.9 WNW 20 33 11 18 1012.7 - 0.0
14/01:30pm 21.8 15.4 3.0 29 9.6 WNW 26 37 14 20 1012.8 - 0.0
14/01:00pm 21.5 14.2 2.7 29 9.5 WNW 30 44 16 24 1012.9 - 0.0
14/12:30pm 21.9 14.7 0.4 24 10.4 NW 28 43 15 23 1013.0 - 0.0
14/12:00pm 21.1 13.7 -0.8 23 10.3 NW 28 39 15 21 1013.1 1008.9 0.0
14/11:38am 21.2 13.7 -1.3 22 10.5 NW 28 46 15 25 1013.2 - 0.0
14/11:30am 21.0 13.3 -0.3 24 10.1 NW 30 43 16 23 1013.2 - 0.0
14/11:00am 20.9 14.2 -1.0 23 10.3 NW 24 39 13 21 1013.5 - 0.0
14/10:30am 20.6 14.9 0.4 26 9.7 NW 20 33 11 18 1013.2 - 0.0
14/10:00am 19.6 12.3 -2.7 22 10.0 WNW 26 48 14 26 1013.1 - 0.0
14/09:57am 19.4 11.6 -3.5 21 10.1 NW 28 48 15 26 1013.1 - 0.0
14/09:30am 19.1 14.8 1.1 30 8.7 NW 13 30 7 16 1013.0 - 0.0
14/09:00am 18.0 14.5 1.1 32 8.1 NW 9 17 5 9 1013.1 1008.9 0.0
14/08:30am 17.4 14.6 3.0 38 7.1 NNW 7 13 4 7 1012.8 - 0.0
14/08:00am 16.9 15.9 5.8 48 5.8 CALM 0 7 0 4 1012.5 - 0.0
14/07:30am 14.7 13.1 4.4 50 5.1 NW 2 6 1 3 1012.2 - 0.0
14/07:00am 13.3 10.8 3.9 53 4.6 NW 6 11 3 6 1012.0 - 0.0
14/06:30am 9.2 7.7 5.2 76 1.9 WNW 2 6 1 3 1012.0 - 0.0
14/06:00am 9.7 8.7 5.7 76 2.0 CALM 0 0 0 0 1011.7 1007.4 0.0
14/05:30am 10.9 9.8 5.2 68 2.8 CALM 0 2 0 1 1011.3 - 0.0
14/05:00am 13.2 10.7 3.8 53 4.6 WNW 6 13 3 7 1011.2 - 0.0
14/04:30am 15.2 11.4 3.7 46 5.7 NW 13 22 7 12 1011.2 - 0.0
14/04:00am 15.7 12.1 2.8 42 6.3 WNW 11 17 6 9 1011.4 - 0.0
14/03:30am 16.3 11.9 2.7 40 6.6 WNW 15 22 8 12 1011.5 - 0.0
14/03:00am 16.0 12.0 2.8 41 6.4 WNW 13 20 7 11 1011.8 1007.5 0.0
14/02:30am 17.3 13.2 2.5 37 7.2 NW 13 22 7 12 1012.0 - 0.0
14/02:00am 16.8 12.7 2.4 38 7.0 WNW 13 20 7 11 1012.3 - 0.0
14/01:30am 18.3 12.9 2.6 35 7.7 WNW 20 32 11 17 1012.6 - 0.0
14/01:00am 18.0 12.7 1.9 34 7.8 WNW 19 26 10 14 1012.8 - 0.0
14/12:30am 18.8 13.9 2.2 33 8.1 WNW 17 28 9 15 1013.0 - 0.0
14/12:00am 18.5 13.3 2.4 34 7.9 WNW 19 26 10 14 1013.1 1008.9 0.0
 
Date/Time
EDT
Temp
°C
App
Temp
°C
Dew
Point
Rel
Hum
%
Delta-T
°C
Wind Press
QNH
hPa
Press
MSL
hPa
Rain
since 9 am
mm
Dir
 
Spd
km/h
Gust
km/h
Spd
kts
Gust
kts
13/11:30pm 18.3 13.8 2.2 34 7.9 WNW 15 28 8 15 1013.4 - 0.0
13/11:00pm 19.6 13.7 2.0 31 8.6 NW 22 32 12 17 1013.7 - 0.0
13/10:30pm 19.3 14.4 2.2 32 8.4 NW 17 24 9 13 1013.9 - 0.0
13/10:00pm 19.2 15.3 3.4 35 8.0 NW 13 24 7 13 1014.2 - 0.0
13/09:30pm 18.0 14.6 3.9 39 7.1 NNW 11 15 6 8 1014.2 - 0.0
13/09:00pm 18.9 15.5 3.9 37 7.6 NNW 11 15 6 8 1014.2 1009.9 0.0
13/08:30pm 19.2 15.5 4.6 38 7.5 NW 13 17 7 9 1014.3 - 0.0
13/08:00pm 20.6 16.6 5.0 36 8.2 NW 15 24 8 13 1014.2 - 0.0
13/07:30pm 21.7 17.5 5.6 35 8.6 NW 17 24 9 13 1014.3 - 0.0
13/07:00pm 22.9 18.0 4.9 31 9.5 NW 20 32 11 17 1014.2 - 0.0
13/06:30pm 23.5 18.5 6.3 33 9.4 NW 22 37 12 20 1014.3 - 0.0
13/06:00pm 24.0 19.6 6.7 33 9.5 NW 19 30 10 16 1014.4 1010.2 0.0
13/05:30pm 23.4 18.3 5.8 32 9.5 NW 22 33 12 18 1014.5 - 0.0
13/05:00pm 24.2 18.7 7.4 34 9.4 NW 26 37 14 20 1014.7 - 0.0
13/04:30pm 23.3 18.8 6.1 33 9.3 NW 19 37 10 20 1014.7 - 0.0
13/04:00pm 23.2 18.8 7.3 36 8.8 NW 20 33 11 18 1014.8 - 0.0
13/03:30pm 22.2 16.7 6.0 35 8.7 NW 24 35 13 19 1015.3 - 0.0
13/03:00pm 22.5 17.7 7.5 38 8.3 NW 22 39 12 21 1015.2 1011.0 0.0
13/02:30pm 22.9 18.1 5.8 33 9.2 NW 20 33 11 18 1015.4 - 0.0
13/02:00pm 24.5 19.7 7.2 33 9.6 NW 22 33 12 18 1015.9 - 0.0
13/01:30pm 23.8 17.5 7.4 35 9.1 NW 30 43 16 23 1016.2 - 0.0
13/01:00pm 24.4 18.4 7.1 33 9.6 NW 28 43 15 23 1016.4 - 0.0
13/12:30pm 23.4 17.2 4.4 29 10.0 NNW 26 43 14 23 1016.8 - 0.0
13/12:00pm 23.5 17.8 4.9 30 9.9 NW 24 39 13 21 1017.0 1012.9 0.0
13/11:30am 23.1 17.3 6.4 34 9.1 NW 26 35 14 19 1017.0 - 0.0
13/11:00am 23.0 19.5 7.1 36 8.8 NW 15 28 8 15 1017.2 - 0.0
13/10:30am 22.2 18.5 6.4 36 8.6 NNW 15 39 8 21 1017.1 - 0.0
13/10:00am 21.6 18.8 7.1 39 7.9 N 11 19 6 10 1016.9 - 0.0
13/09:30am 20.6 18.6 6.9 41 7.4 N 7 19 4 10 1017.1 - 0.0
13/09:00am 19.0 15.9 7.4 47 6.3 NNW 13 22 7 12 1017.3 1013.2 0.0
13/08:30am 19.0 15.4 6.8 45 6.5 NNW 15 28 8 15 1017.3 - 0.0
13/08:00am 17.9 13.8 6.1 46 6.2 NW 17 26 9 14 1017.0 - 0.0
13/07:30am 16.2 13.2 5.8 50 5.4 NW 11 20 6 11 1016.9 - 0.0
13/07:00am 16.2 12.4 5.8 50 5.4 NW 15 22 8 12 1016.8 - 0.0
13/06:30am 14.8 11.3 5.3 53 4.8 NNW 13 15 7 8 1016.7 - 0.0
13/06:00am 15.3 11.8 5.5 52 5.0 NNW 13 17 7 9 1016.4 1012.3 0.0
13/05:30am 15.5 12.4 5.7 52 5.0 NNW 11 19 6 10 1016.4 - 0.0
13/05:00am 13.3 10.2 5.7 60 3.8 NW 11 17 6 9 1016.3 - 0.0
13/04:30am 13.0 10.8 5.4 60 3.8 WNW 6 9 3 5 1016.3 - 0.0
13/04:00am 13.6 12.5 6.7 63 3.6 NNW 2 7 1 4 1016.5 - 0.0
13/03:30am 11.7 10.5 6.4 70 2.7 WNW 2 7 1 4 1016.7 - 0.0
13/03:00am 11.7 9.4 5.6 66 3.0 N 7 13 4 7 1016.9 1012.7 0.0
13/02:30am 11.5 9.4 5.8 68 2.9 N 6 7 3 4 1017.2 - 0.0
13/02:00am 12.9 11.0 6.7 66 3.2 NNW 6 7 3 4 1017.6 - 0.0
13/01:30am 12.9 10.8 6.0 63 3.5 NW 6 6 3 3 1017.9 - 0.0
13/01:00am 12.0 10.1 6.7 70 2.7 WNW 6 7 3 4 1018.1 - 0.0
13/12:30am 10.9 8.7 5.2 68 2.8 NW 6 6 3 3 1018.4 - 0.0
13/12:00am 12.9 11.3 6.5 65 3.3 NNW 4 6 2 3 1018.6 1014.5 0.0
 
Date/Time
EDT
Temp
°C
App
Temp
°C
Dew
Point
Rel
Hum
%
Delta-T
°C
Wind Press
QNH
hPa
Press
MSL
hPa
Rain
since 9 am
mm
Dir
 
Spd
km/h
Gust
km/h
Spd
kts
Gust
kts
12/11:30pm 12.6 10.6 6.2 65 3.3 NNW 6 6 3 3 1018.8 - 0.0
12/11:00pm 12.6 11.3 5.8 63 3.4 - 2 4 1 2 1018.9 - 0.0
12/10:30pm 12.1 10.7 5.7 65 3.2 WNW 2 6 1 3 1019.1 - 0.0
12/10:00pm 13.1 12.0 5.3 59 3.9 CALM 0 4 0 2 1019.1 - 0.0
12/09:30pm 13.5 12.5 5.4 58 4.1 CALM 0 0 0 0 1019.1 - 0.0
12/09:00pm 15.8 14.9 6.0 52 5.1 CALM 0 0 0 0 1019.0 1015.0 0.0
12/08:30pm 17.1 15.4 6.0 48 5.8 WNW 4 6 2 3 1018.9 - 0.0
12/08:00pm 17.3 14.7 6.2 48 5.8 NW 9 11 5 6 1018.6 - 0.0
12/07:30pm 19.4 16.1 6.5 43 6.9 NW 13 19 7 10 1018.6 - 0.0
12/07:00pm 21.1 17.4 6.2 38 8.0 NW 15 22 8 12 1018.5 - 0.0
12/06:30pm 21.9 18.5 7.7 40 7.9 WNW 15 26 8 14 1018.4 - 0.0
12/06:00pm 22.5 19.2 7.9 39 8.1 NW 15 22 8 12 1018.4 1014.3 0.0
12/05:30pm 23.0 19.8 8.3 39 8.3 NW 15 28 8 15 1018.2 - 0.0
12/05:00pm 23.2 19.5 8.1 38 8.5 NW 17 28 9 15 1018.4 - 0.0
12/04:30pm 22.9 18.6 7.0 36 8.7 WNW 19 28 10 15 1018.5 - 0.0
12/04:00pm 23.2 18.3 6.9 35 9.0 WNW 22 32 12 17 1018.5 - 0.0
12/03:30pm 22.3 19.3 7.7 39 8.1 WNW 13 19 7 10 1018.8 - 0.0
12/03:00pm 22.5 19.7 8.6 41 7.8 WNW 13 22 7 12 1019.1 1015.1 0.0
12/02:30pm 20.4 17.6 7.1 42 7.2 W 11 19 6 10 1019.5 - 0.0
12/02:00pm 22.5 18.2 5.4 33 9.1 WSW 17 26 9 14 1019.7 - 0.0
12/01:30pm 22.5 17.9 5.4 33 9.1 W 19 26 10 14 1019.7 - 0.0
12/01:00pm 22.3 18.0 6.9 37 8.4 WSW 19 28 10 15 1019.9 - 0.0
12/12:30pm 22.1 17.7 6.7 37 8.4 WSW 19 32 10 17 1020.1 - 0.0
12/12:00pm 21.9 17.2 5.3 34 8.8 W 19 30 10 16 1020.3 1016.2 0.0
12/11:30am 21.8 17.3 4.4 32 9.1 W 17 30 9 16 1020.2 - 0.0
12/11:00am 21.2 17.5 4.7 34 8.6 W 13 28 7 15 1020.3 - 0.0
12/10:30am 20.7 17.9 7.0 41 7.4 N 11 19 6 10 1020.3 - 0.0
12/10:00am 20.1 17.4 7.5 44 6.9 NNW 11 15 6 8 1020.3 - 0.0
12/09:30am 19.3 16.3 7.7 47 6.3 NNW 13 17 7 9 1020.4 - 0.0
12/09:00am 17.8 15.6 9.2 57 4.8 NNW 11 17 6 9 1020.4 1016.3 0.2
12/08:30am 16.4 14.3 8.4 59 4.4 NNW 9 11 5 6 1020.4 - 0.2
12/08:00am 14.7 13.0 8.4 66 3.4 NW 7 9 4 5 1020.2 - 0.2
12/07:30am 11.4 9.4 6.9 74 2.3 NW 7 11 4 6 1019.9 - 0.2
12/07:00am 9.6 6.3 4.6 71 2.4 NNW 11 11 6 6 1019.6 - 0.2
12/06:30am 8.8 6.2 6.1 83 1.3 N 9 11 5 6 1019.1 - 0.2
12/06:00am 7.0 5.0 6.9 99 0.0 NW 7 7 4 4 1018.9 1014.8 0.2
12/05:49am 7.2 5.2 7.1 99 0.1 NW 7 9 4 5 1018.9 - 0.2
12/05:30am 7.5 5.8 7.4 99 0.1 NNW 6 7 3 4 1018.7 - 0.2
12/05:00am 9.1 8.9 9.1 100 0.0 CALM 0 6 0 3 1018.8 - 0.2
12/04:30am 6.7 5.9 6.6 99 0.0 CALM 0 0 0 0 1018.7 - 0.2
12/04:00am 7.4 6.4 7.3 99 0.1 NNW 2 6 1 3 1018.9 - 0.2
12/03:30am 8.4 8.0 8.4 100 0.0 CALM 0 0 0 0 1019.0 - 0.2
12/03:00am 6.7 5.2 6.6 99 0.0 E 4 6 2 3 1019.1 1015.1 0.2
12/02:32am 8.8 7.8 8.7 99 0.1 NNW 4 7 2 4 1019.4 - 0.2
12/02:30am 9.4 8.1 9.3 99 0.1 NNW 6 7 3 4 1019.4 - 0.2
12/02:04am 9.8 8.5 9.8 100 0.0 NW 7 7 4 4 1019.6 - 0.2
12/02:00am 10.9 9.9 10.9 100 0.0 NW 7 11 4 6 1019.6 - 0.2
12/01:30am 11.5 10.3 11.5 100 0.0 NNW 9 11 5 6 1019.9 - 0.2
12/01:00am 11.9 10.8 11.9 100 0.0 NNW 9 11 5 6 1020.2 - 0.2
12/12:40am 11.5 10.8 11.5 100 0.0 NNW 6 9 3 5 1020.4 - 0.2
12/12:30am 11.5 11.2 11.5 100 0.0 NW 4 6 2 3 1020.4 - 0.2
12/12:19am 11.9 11.4 11.9 100 0.0 NW 6 7 3 4 1020.4 - 0.2
12/12:00am 11.8 11.0 11.8 100 0.0 WNW 7 11 4 6 1020.4 1016.3 0.2
 
Date/Time
EDT
Temp
°C
App
Temp
°C
Dew
Point
Rel
Hum
%
Delta-T
°C
Wind Press
QNH
hPa
Press
MSL
hPa
Rain
since 9 am
mm
Dir
 
Spd
km/h
Gust
km/h
Spd
kts
Gust
kts
11/11:30pm 12.9 13.1 12.9 100 0.0 NE 4 6 2 3 1020.8 - 0.2
11/11:00pm 12.8 12.3 12.8 100 0.0 E 7 7 4 4 1021.2 - 0.2
11/10:30pm 13.3 12.6 13.1 99 0.1 ESE 9 13 5 7 1021.3 - 0.2
11/10:11pm 13.7 14.0 13.5 99 0.1 ESE 4 7 2 4 1021.1 - 0.2
11/10:07pm 13.7 14.4 13.5 99 0.1 SE 2 7 1 4 1021.1 - 0.2
11/10:00pm 13.7 14.4 13.5 99 0.1 SSE 2 6 1 3 1021.0 - 0.2
11/09:51pm 13.7 13.7 13.5 99 0.1 SSE 6 7 3 4 1020.8 - 0.2
11/09:30pm 13.7 13.5 13.5 99 0.1 SSE 7 11 4 6 1020.5 - 0.2
11/09:00pm 14.0 13.5 13.8 99 0.1 SSW 9 15 5 8 1020.2 1016.1 0.2
11/08:30pm 14.1 13.6 13.9 99 0.1 S 9 15 5 8 1019.7 - 0.2
11/08:00pm 15.4 15.0 14.1 92 0.8 S 9 15 5 8 1019.5 - 0.2
11/07:30pm 16.4 15.9 14.9 91 0.9 SSW 11 17 6 9 1019.1 - 0.2

Other Formats:

Comma delimited format used in spreadsheet applications
http://www.bom.gov.au/fwo/IDV60801/IDV60801.94905.axf

JavaScript Object Notation format (JSON) in row-major order
http://www.bom.gov.au/fwo/IDV60801/IDV60801.94905.json